sensor_id;sensor_type;location;lat;lon;timestamp;P1;P2;P0
24012;PMS7003;12220;50.194;18.948;2022-09-09T00:00:20;9;9;9
24012;PMS7003;12220;50.194;18.948;2022-09-09T00:02:29;11;10;6
24012;PMS7003;12220;50.194;18.948;2022-09-09T00:04:35;12;10;8
24012;PMS7003;12220;50.194;18.948;2022-09-09T00:11:02;11;11;8
24012;PMS7003;12220;50.194;18.948;2022-09-09T00:15:26;6;6;6
24012;PMS7003;12220;50.194;18.948;2022-09-09T00:22:30;6;6;5
24012;PMS7003;12220;50.194;18.948;2022-09-09T00:26:48;7;7;5
24012;PMS7003;12220;50.194;18.948;2022-09-09T00:29:00;7;7;6
24012;PMS7003;12220;50.194;18.948;2022-09-09T00:31:14;7;7;5
24012;PMS7003;12220;50.194;18.948;2022-09-09T00:33:22;10;9;5
24012;PMS7003;12220;50.194;18.948;2022-09-09T00:35:36;6;5;4
24012;PMS7003;12220;50.194;18.948;2022-09-09T00:37:40;7;7;6
24012;PMS7003;12220;50.194;18.948;2022-09-09T00:39:46;6;6;5
24012;PMS7003;12220;50.194;18.948;2022-09-09T00:44:13;8;5;5
24012;PMS7003;12220;50.194;18.948;2022-09-09T00:46:26;6;6;4
24012;PMS7003;12220;50.194;18.948;2022-09-09T00:50:57;9;9;7
24012;PMS7003;12220;50.194;18.948;2022-09-09T00:55:42;5;3;2
24012;PMS7003;12220;50.194;18.948;2022-09-09T00:57:58;7;7;6
24012;PMS7003;12220;50.194;18.948;2022-09-09T01:02:16;9;8;6
24012;PMS7003;12220;50.194;18.948;2022-09-09T01:04:29;7;7;5
24012;PMS7003;12220;50.194;18.948;2022-09-09T01:06:35;7;7;6
24012;PMS7003;12220;50.194;18.948;2022-09-09T01:08:42;9;7;6
24012;PMS7003;12220;50.194;18.948;2022-09-09T01:11:00;11;8;5
24012;PMS7003;12220;50.194;18.948;2022-09-09T01:13:03;5;5;5
24012;PMS7003;12220;50.194;18.948;2022-09-09T01:15:12;6;6;6
24012;PMS7003;12220;50.194;18.948;2022-09-09T01:17:23;10;9;7
24012;PMS7003;12220;50.194;18.948;2022-09-09T01:19:37;10;10;7
24012;PMS7003;12220;50.194;18.948;2022-09-09T01:21:43;11;11;9
24012;PMS7003;12220;50.194;18.948;2022-09-09T01:26:21;12;11;9
24012;PMS7003;12220;50.194;18.948;2022-09-09T01:28:27;14;14;10
24012;PMS7003;12220;50.194;18.948;2022-09-09T01:30:30;14;13;10
24012;PMS7003;12220;50.194;18.948;2022-09-09T01:34:43;11;11;8
24012;PMS7003;12220;50.194;18.948;2022-09-09T01:36:49;10;10;8
24012;PMS7003;12220;50.194;18.948;2022-09-09T01:38:57;13;13;9
24012;PMS7003;12220;50.194;18.948;2022-09-09T01:40:58;11;11;8
24012;PMS7003;12220;50.194;18.948;2022-09-09T01:43:02;13;12;10
24012;PMS7003;12220;50.194;18.948;2022-09-09T01:45:04;14;14;9
24012;PMS7003;12220;50.194;18.948;2022-09-09T01:47:07;15;14;10
24012;PMS7003;12220;50.194;18.948;2022-09-09T01:49:08;12;12;9
24012;PMS7003;12220;50.194;18.948;2022-09-09T01:51:16;11;11;8
24012;PMS7003;12220;50.194;18.948;2022-09-09T01:53:21;21;17;12
24012;PMS7003;12220;50.194;18.948;2022-09-09T01:59:53;11;11;9
24012;PMS7003;12220;50.194;18.948;2022-09-09T02:04:20;10;10;8
24012;PMS7003;12220;50.194;18.948;2022-09-09T02:06:36;15;15;10
24012;PMS7003;12220;50.194;18.948;2022-09-09T02:13:05;9;9;8
24012;PMS7003;12220;50.194;18.948;2022-09-09T02:15:23;12;12;9
24012;PMS7003;12220;50.194;18.948;2022-09-09T02:17:26;12;12;9
24012;PMS7003;12220;50.194;18.948;2022-09-09T02:19:39;12;10;9
24012;PMS7003;12220;50.194;18.948;2022-09-09T02:21:59;10;10;8
24012;PMS7003;12220;50.194;18.948;2022-09-09T02:24:04;12;12;10
24012;PMS7003;12220;50.194;18.948;2022-09-09T02:26:11;10;10;9
24012;PMS7003;12220;50.194;18.948;2022-09-09T02:28:21;11;8;7
24012;PMS7003;12220;50.194;18.948;2022-09-09T02:30:27;9;7;5
24012;PMS7003;12220;50.194;18.948;2022-09-09T02:32:36;5;5;4
24012;PMS7003;12220;50.194;18.948;2022-09-09T02:34:42;6;6;5
24012;PMS7003;12220;50.194;18.948;2022-09-09T02:36:46;8;8;6
24012;PMS7003;12220;50.194;18.948;2022-09-09T02:38:52;11;11;9
24012;PMS7003;12220;50.194;18.948;2022-09-09T02:40:55;11;11;9
24012;PMS7003;12220;50.194;18.948;2022-09-09T02:42:56;11;11;9
24012;PMS7003;12220;50.194;18.948;2022-09-09T02:44:57;8;8;7
24012;PMS7003;12220;50.194;18.948;2022-09-09T02:49:18;7;7;5
24012;PMS7003;12220;50.194;18.948;2022-09-09T02:58:20;8;5;4
24012;PMS7003;12220;50.194;18.948;2022-09-09T03:00:23;6;6;6
24012;PMS7003;12220;50.194;18.948;2022-09-09T03:02:26;6;6;5
24012;PMS7003;12220;50.194;18.948;2022-09-09T03:04:28;8;8;6
24012;PMS7003;12220;50.194;18.948;2022-09-09T03:06:31;7;7;5
24012;PMS7003;12220;50.194;18.948;2022-09-09T03:08:32;8;8;5
24012;PMS7003;12220;50.194;18.948;2022-09-09T03:10:34;7;7;6
24012;PMS7003;12220;50.194;18.948;2022-09-09T03:12:42;8;8;5
24012;PMS7003;12220;50.194;18.948;2022-09-09T03:14:44;6;6;5
24012;PMS7003;12220;50.194;18.948;2022-09-09T03:16:47;6;5;5
24012;PMS7003;12220;50.194;18.948;2022-09-09T03:18:49;10;10;7
24012;PMS7003;12220;50.194;18.948;2022-09-09T03:20:57;8;8;7
24012;PMS7003;12220;50.194;18.948;2022-09-09T03:23:00;9;6;5
24012;PMS7003;12220;50.194;18.948;2022-09-09T03:25:02;5;5;4
24012;PMS7003;12220;50.194;18.948;2022-09-09T03:27:04;5;5;5
24012;PMS7003;12220;50.194;18.948;2022-09-09T03:29:12;6;6;4
24012;PMS7003;12220;50.194;18.948;2022-09-09T03:31:17;7;7;6
24012;PMS7003;12220;50.194;18.948;2022-09-09T03:33:20;6;6;5
24012;PMS7003;12220;50.194;18.948;2022-09-09T03:35:21;7;7;4
24012;PMS7003;12220;50.194;18.948;2022-09-09T03:37:27;6;6;5
24012;PMS7003;12220;50.194;18.948;2022-09-09T03:39:28;5;5;4
24012;PMS7003;12220;50.194;18.948;2022-09-09T03:41:30;3;3;3
24012;PMS7003;12220;50.194;18.948;2022-09-09T03:43:31;7;5;5
24012;PMS7003;12220;50.194;18.948;2022-09-09T03:45:45;8;8;6
24012;PMS7003;12220;50.194;18.948;2022-09-09T03:47:49;7;7;5
24012;PMS7003;12220;50.194;18.948;2022-09-09T03:49:50;9;8;5
24012;PMS7003;12220;50.194;18.948;2022-09-09T03:51:51;5;5;5
24012;PMS7003;12220;50.194;18.948;2022-09-09T03:53:56;5;4;3
24012;PMS7003;12220;50.194;18.948;2022-09-09T03:55:58;3;3;3
24012;PMS7003;12220;50.194;18.948;2022-09-09T03:58:04;5;5;4
24012;PMS7003;12220;50.194;18.948;2022-09-09T04:00:06;7;7;6
24012;PMS7003;12220;50.194;18.948;2022-09-09T04:02:11;6;6;5
24012;PMS7003;12220;50.194;18.948;2022-09-09T04:04:13;7;7;4
24012;PMS7003;12220;50.194;18.948;2022-09-09T04:06:14;5;5;5
24012;PMS7003;12220;50.194;18.948;2022-09-09T04:08:15;3;3;3
24012;PMS7003;12220;50.194;18.948;2022-09-09T04:10:26;4;2;2
24012;PMS7003;12220;50.194;18.948;2022-09-09T04:12:29;5;5;4
24012;PMS7003;12220;50.194;18.948;2022-09-09T04:14:30;4;4;4
24012;PMS7003;12220;50.194;18.948;2022-09-09T04:16:34;4;4;3
24012;PMS7003;12220;50.194;18.948;2022-09-09T04:18:41;6;6;5
24012;PMS7003;12220;50.194;18.948;2022-09-09T04:20:45;4;4;4
24012;PMS7003;12220;50.194;18.948;2022-09-09T04:22:48;4;4;4
24012;PMS7003;12220;50.194;18.948;2022-09-09T04:24:49;4;4;3
24012;PMS7003;12220;50.194;18.948;2022-09-09T04:26:56;4;3;2
24012;PMS7003;12220;50.194;18.948;2022-09-09T04:28:58;4;4;3
24012;PMS7003;12220;50.194;18.948;2022-09-09T04:33:11;4;4;3
24012;PMS7003;12220;50.194;18.948;2022-09-09T04:35:14;4;4;2
24012;PMS7003;12220;50.194;18.948;2022-09-09T04:37:15;6;4;2
24012;PMS7003;12220;50.194;18.948;2022-09-09T04:39:18;5;5;4
24012;PMS7003;12220;50.194;18.948;2022-09-09T04:41:21;3;3;2
24012;PMS7003;12220;50.194;18.948;2022-09-09T04:43:25;2;2;1
24012;PMS7003;12220;50.194;18.948;2022-09-09T04:45:31;5;5;4
24012;PMS7003;12220;50.194;18.948;2022-09-09T04:47:34;5;5;4
24012;PMS7003;12220;50.194;18.948;2022-09-09T04:49:36;3;3;3
24012;PMS7003;12220;50.194;18.948;2022-09-09T04:51:40;4;4;4
24012;PMS7003;12220;50.194;18.948;2022-09-09T04:53:44;5;5;5
24012;PMS7003;12220;50.194;18.948;2022-09-09T04:55:48;3;3;3
24012;PMS7003;12220;50.194;18.948;2022-09-09T04:57:50;2;2;1
24012;PMS7003;12220;50.194;18.948;2022-09-09T04:59:55;3;3;2
24012;PMS7003;12220;50.194;18.948;2022-09-09T05:01:56;4;4;3
24012;PMS7003;12220;50.194;18.948;2022-09-09T05:03:58;3;3;2
24012;PMS7003;12220;50.194;18.948;2022-09-09T05:06:03;2;2;2
24012;PMS7003;12220;50.194;18.948;2022-09-09T05:08:10;3;3;3
24012;PMS7003;12220;50.194;18.948;2022-09-09T05:10:11;4;4;3
24012;PMS7003;12220;50.194;18.948;2022-09-09T05:12:15;5;4;4
24012;PMS7003;12220;50.194;18.948;2022-09-09T05:14:17;4;4;3
24012;PMS7003;12220;50.194;18.948;2022-09-09T05:16:25;3;3;2
24012;PMS7003;12220;50.194;18.948;2022-09-09T05:18:27;4;4;3
24012;PMS7003;12220;50.194;18.948;2022-09-09T05:20:28;6;6;5
24012;PMS7003;12220;50.194;18.948;2022-09-09T05:22:30;5;5;4
24012;PMS7003;12220;50.194;18.948;2022-09-09T05:24:40;4;4;3
24012;PMS7003;12220;50.194;18.948;2022-09-09T05:26:41;6;4;3
24012;PMS7003;12220;50.194;18.948;2022-09-09T05:28:44;7;7;6
24012;PMS7003;12220;50.194;18.948;2022-09-09T05:30:45;7;6;5
24012;PMS7003;12220;50.194;18.948;2022-09-09T05:32:58;6;6;5
24012;PMS7003;12220;50.194;18.948;2022-09-09T05:35:02;6;6;6
24012;PMS7003;12220;50.194;18.948;2022-09-09T05:37:04;4;4;3
24012;PMS7003;12220;50.194;18.948;2022-09-09T05:39:07;3;3;3
24012;PMS7003;12220;50.194;18.948;2022-09-09T05:41:10;7;7;5
24012;PMS7003;12220;50.194;18.948;2022-09-09T05:43:11;4;4;4
24012;PMS7003;12220;50.194;18.948;2022-09-09T05:45:13;2;2;1
24012;PMS7003;12220;50.194;18.948;2022-09-09T05:47:14;3;3;3
24012;PMS7003;12220;50.194;18.948;2022-09-09T05:49:24;7;7;5
24012;PMS7003;12220;50.194;18.948;2022-09-09T05:51:29;5;4;3
24012;PMS7003;12220;50.194;18.948;2022-09-09T05:53:34;8;8;5
24012;PMS7003;12220;50.194;18.948;2022-09-09T05:55:36;4;3;3
24012;PMS7003;12220;50.194;18.948;2022-09-09T05:57:39;9;5;4
24012;PMS7003;12220;50.194;18.948;2022-09-09T05:59:40;6;6;4
24012;PMS7003;12220;50.194;18.948;2022-09-09T06:01:42;7;7;6
24012;PMS7003;12220;50.194;18.948;2022-09-09T06:03:47;8;8;7
24012;PMS7003;12220;50.194;18.948;2022-09-09T06:05:58;6;6;5
24012;PMS7003;12220;50.194;18.948;2022-09-09T06:08:15;7;7;4
24012;PMS7003;12220;50.194;18.948;2022-09-09T06:10:17;5;5;4
24012;PMS7003;12220;50.194;18.948;2022-09-09T06:12:18;10;8;6
24012;PMS7003;12220;50.194;18.948;2022-09-09T06:14:21;10;8;6
24012;PMS7003;12220;50.194;18.948;2022-09-09T06:16:31;8;8;6
24012;PMS7003;12220;50.194;18.948;2022-09-09T06:18:34;7;7;6
24012;PMS7003;12220;50.194;18.948;2022-09-09T06:20:35;7;7;6
24012;PMS7003;12220;50.194;18.948;2022-09-09T06:22:38;7;7;5
24012;PMS7003;12220;50.194;18.948;2022-09-09T06:24:45;8;7;5
24012;PMS7003;12220;50.194;18.948;2022-09-09T06:26:46;7;6;5
24012;PMS7003;12220;50.194;18.948;2022-09-09T06:28:48;6;5;5
24012;PMS7003;12220;50.194;18.948;2022-09-09T06:33:05;11;9;7
24012;PMS7003;12220;50.194;18.948;2022-09-09T06:35:06;8;8;7
24012;PMS7003;12220;50.194;18.948;2022-09-09T06:37:08;7;6;5
24012;PMS7003;12220;50.194;18.948;2022-09-09T06:39:09;8;7;6
24012;PMS7003;12220;50.194;18.948;2022-09-09T06:41:20;7;7;6
24012;PMS7003;12220;50.194;18.948;2022-09-09T06:43:24;9;8;5
24012;PMS7003;12220;50.194;18.948;2022-09-09T06:45:26;9;7;7
24012;PMS7003;12220;50.194;18.948;2022-09-09T06:47:37;6;6;5
24012;PMS7003;12220;50.194;18.948;2022-09-09T06:49:38;10;10;7
24012;PMS7003;12220;50.194;18.948;2022-09-09T06:51:39;8;8;7
24012;PMS7003;12220;50.194;18.948;2022-09-09T06:53:44;9;8;5
24012;PMS7003;12220;50.194;18.948;2022-09-09T06:55:48;8;8;6
24012;PMS7003;12220;50.194;18.948;2022-09-09T06:57:50;10;10;9
24012;PMS7003;12220;50.194;18.948;2022-09-09T06:59:52;13;12;8
24012;PMS7003;12220;50.194;18.948;2022-09-09T07:01:53;11;11;9
24012;PMS7003;12220;50.194;18.948;2022-09-09T07:03:56;7;7;6
24012;PMS7003;12220;50.194;18.948;2022-09-09T07:06:04;7;7;6
24012;PMS7003;12220;50.194;18.948;2022-09-09T07:08:07;8;8;7
24012;PMS7003;12220;50.194;18.948;2022-09-09T07:10:09;7;6;6
24012;PMS7003;12220;50.194;18.948;2022-09-09T07:12:10;8;8;7
24012;PMS7003;12220;50.194;18.948;2022-09-09T07:14:19;8;8;7
24012;PMS7003;12220;50.194;18.948;2022-09-09T07:16:23;7;7;6
24012;PMS7003;12220;50.194;18.948;2022-09-09T07:18:25;6;6;5
24012;PMS7003;12220;50.194;18.948;2022-09-09T07:20:26;7;7;6
24012;PMS7003;12220;50.194;18.948;2022-09-09T07:22:33;7;7;6
24012;PMS7003;12220;50.194;18.948;2022-09-09T07:24:34;8;8;6
24012;PMS7003;12220;50.194;18.948;2022-09-09T07:26:38;7;7;6
24012;PMS7003;12220;50.194;18.948;2022-09-09T07:28:40;9;9;7
24012;PMS7003;12220;50.194;18.948;2022-09-09T07:33:09;9;9;7
24012;PMS7003;12220;50.194;18.948;2022-09-09T07:35:11;6;5;5
24012;PMS7003;12220;50.194;18.948;2022-09-09T07:37:12;7;7;6
24012;PMS7003;12220;50.194;18.948;2022-09-09T07:39:14;12;12;8
24012;PMS7003;12220;50.194;18.948;2022-09-09T07:41:25;11;11;8
24012;PMS7003;12220;50.194;18.948;2022-09-09T07:43:29;9;7;6
24012;PMS7003;12220;50.194;18.948;2022-09-09T07:45:30;11;11;7
24012;PMS7003;12220;50.194;18.948;2022-09-09T07:47:33;10;9;7
24012;PMS7003;12220;50.194;18.948;2022-09-09T07:49:39;12;9;6
24012;PMS7003;12220;50.194;18.948;2022-09-09T07:51:44;10;9;8
24012;PMS7003;12220;50.194;18.948;2022-09-09T07:53:46;11;10;7
24012;PMS7003;12220;50.194;18.948;2022-09-09T07:55:48;7;7;5
24012;PMS7003;12220;50.194;18.948;2022-09-09T07:57:56;5;5;4
24012;PMS7003;12220;50.194;18.948;2022-09-09T07:59:57;6;6;4
24012;PMS7003;12220;50.194;18.948;2022-09-09T08:02:02;8;7;5
24012;PMS7003;12220;50.194;18.948;2022-09-09T08:04:07;8;8;6
24012;PMS7003;12220;50.194;18.948;2022-09-09T08:06:17;7;7;6
24012;PMS7003;12220;50.194;18.948;2022-09-09T08:08:19;7;7;6
24012;PMS7003;12220;50.194;18.948;2022-09-09T08:10:20;6;6;6
24012;PMS7003;12220;50.194;18.948;2022-09-09T08:12:22;7;7;5
24012;PMS7003;12220;50.194;18.948;2022-09-09T08:14:29;5;5;5
24012;PMS7003;12220;50.194;18.948;2022-09-09T08:16:32;7;7;6
24012;PMS7003;12220;50.194;18.948;2022-09-09T08:18:38;4;4;4
24012;PMS7003;12220;50.194;18.948;2022-09-09T08:20:40;7;7;6
24012;PMS7003;12220;50.194;18.948;2022-09-09T08:22:43;7;7;7
24012;PMS7003;12220;50.194;18.948;2022-09-09T08:24:44;6;6;5
24012;PMS7003;12220;50.194;18.948;2022-09-09T08:26:51;7;7;6
24012;PMS7003;12220;50.194;18.948;2022-09-09T08:29:04;5;5;5
24012;PMS7003;12220;50.194;18.948;2022-09-09T08:31:11;3;3;2
24012;PMS7003;12220;50.194;18.948;2022-09-09T08:33:19;4;4;4
24012;PMS7003;12220;50.194;18.948;2022-09-09T08:35:20;5;5;5
24012;PMS7003;12220;50.194;18.948;2022-09-09T08:37:22;4;4;4
24012;PMS7003;12220;50.194;18.948;2022-09-09T08:39:26;6;5;4
24012;PMS7003;12220;50.194;18.948;2022-09-09T08:51:18;6;6;5
24012;PMS7003;12220;50.194;18.948;2022-09-09T08:53:26;4;4;3
24012;PMS7003;12220;50.194;18.948;2022-09-09T09:00:27;3;3;3
24012;PMS7003;12220;50.194;18.948;2022-09-09T09:14:34;4;4;4
24012;PMS7003;12220;50.194;18.948;2022-09-09T09:18:53;6;6;5
24012;PMS7003;12220;50.194;18.948;2022-09-09T09:21:00;4;4;3
24012;PMS7003;12220;50.194;18.948;2022-09-09T09:23:19;3;3;3
24012;PMS7003;12220;50.194;18.948;2022-09-09T09:25:29;4;4;3
24012;PMS7003;12220;50.194;18.948;2022-09-09T09:30:10;7;7;6
24012;PMS7003;12220;50.194;18.948;2022-09-09T09:32:24;5;5;5
24012;PMS7003;12220;50.194;18.948;2022-09-09T09:34:29;3;3;3
24012;PMS7003;12220;50.194;18.948;2022-09-09T09:41:31;5;5;4
24012;PMS7003;12220;50.194;18.948;2022-09-09T09:43:40;5;5;5
24012;PMS7003;12220;50.194;18.948;2022-09-09T09:45:45;7;7;6
24012;PMS7003;12220;50.194;18.948;2022-09-09T09:47:57;5;5;5
24012;PMS7003;12220;50.194;18.948;2022-09-09T09:50:00;4;4;4
24012;PMS7003;12220;50.194;18.948;2022-09-09T09:52:04;5;5;4
24012;PMS7003;12220;50.194;18.948;2022-09-09T09:56:26;6;3;2
24012;PMS7003;12220;50.194;18.948;2022-09-09T10:02:17;3;3;3
24012;PMS7003;12220;50.194;18.948;2022-09-09T10:04:21;6;6;5
24012;PMS7003;12220;50.194;18.948;2022-09-09T10:08:44;4;4;4
24012;PMS7003;12220;50.194;18.948;2022-09-09T10:13:07;4;3;3
24012;PMS7003;12220;50.194;18.948;2022-09-09T10:26:46;4;4;4
24012;PMS7003;12220;50.194;18.948;2022-09-09T10:29:05;4;4;3
24012;PMS7003;12220;50.194;18.948;2022-09-09T10:38:15;4;4;4
24012;PMS7003;12220;50.194;18.948;2022-09-09T10:42:32;4;4;4
24012;PMS7003;12220;50.194;18.948;2022-09-09T10:44:36;2;2;2
24012;PMS7003;12220;50.194;18.948;2022-09-09T10:46:51;4;4;3
24012;PMS7003;12220;50.194;18.948;2022-09-09T10:49:13;2;2;2
24012;PMS7003;12220;50.194;18.948;2022-09-09T10:56:11;3;3;3
24012;PMS7003;12220;50.194;18.948;2022-09-09T11:02:43;3;3;3
24012;PMS7003;12220;50.194;18.948;2022-09-09T11:04:46;4;4;4
24012;PMS7003;12220;50.194;18.948;2022-09-09T11:06:56;4;3;3
24012;PMS7003;12220;50.194;18.948;2022-09-09T11:09:04;3;3;3
24012;PMS7003;12220;50.194;18.948;2022-09-09T11:13:22;3;3;3
24012;PMS7003;12220;50.194;18.948;2022-09-09T11:15:38;0;0;0
24012;PMS7003;12220;50.194;18.948;2022-09-09T11:17:45;1;1;1
24012;PMS7003;12220;50.194;18.948;2022-09-09T11:19:54;3;3;3
24012;PMS7003;12220;50.194;18.948;2022-09-09T11:21:56;3;3;3
24012;PMS7003;12220;50.194;18.948;2022-09-09T11:26:17;2;2;2
24012;PMS7003;12220;50.194;18.948;2022-09-09T11:40:00;2;2;2
24012;PMS7003;12220;50.194;18.948;2022-09-09T11:42:22;1;1;1
24012;PMS7003;12220;50.194;18.948;2022-09-09T11:44:27;1;1;1
24012;PMS7003;12220;50.194;18.948;2022-09-09T11:46:35;0;0;0
24012;PMS7003;12220;50.194;18.948;2022-09-09T11:48:42;0;0;0
24012;PMS7003;12220;50.194;18.948;2022-09-09T11:53:05;1;1;1
24012;PMS7003;12220;50.194;18.948;2022-09-09T11:57:43;1;1;1
24012;PMS7003;12220;50.194;18.948;2022-09-09T11:59:50;1;1;1
24012;PMS7003;12220;50.194;18.948;2022-09-09T12:02:00;2;0;0
24012;PMS7003;12220;50.194;18.948;2022-09-09T12:06:42;2;2;2
24012;PMS7003;12220;50.194;18.948;2022-09-09T12:08:48;1;1;1
24012;PMS7003;12220;50.194;18.948;2022-09-09T12:10:56;0;0;0
24012;PMS7003;12220;50.194;18.948;2022-09-09T12:17:29;1;1;1
24012;PMS7003;12220;50.194;18.948;2022-09-09T12:19:34;1;1;1
24012;PMS7003;12220;50.194;18.948;2022-09-09T12:21:41;1;1;1
24012;PMS7003;12220;50.194;18.948;2022-09-09T12:24:10;1;1;1
24012;PMS7003;12220;50.194;18.948;2022-09-09T12:33:33;3;3;2
24012;PMS7003;12220;50.194;18.948;2022-09-09T12:35:50;1;1;1
24012;PMS7003;12220;50.194;18.948;2022-09-09T12:37:59;0;0;0
24012;PMS7003;12220;50.194;18.948;2022-09-09T12:40:04;1;1;1
24012;PMS7003;12220;50.194;18.948;2022-09-09T12:42:16;1;1;1
24012;PMS7003;12220;50.194;18.948;2022-09-09T12:44:19;1;1;1
24012;PMS7003;12220;50.194;18.948;2022-09-09T12:46:32;1;1;1
24012;PMS7003;12220;50.194;18.948;2022-09-09T12:48:39;0;0;0
24012;PMS7003;12220;50.194;18.948;2022-09-09T12:50:49;1;1;1
24012;PMS7003;12220;50.194;18.948;2022-09-09T12:52:54;0;0;0
24012;PMS7003;12220;50.194;18.948;2022-09-09T12:55:02;1;1;1
24012;PMS7003;12220;50.194;18.948;2022-09-09T12:57:12;1;1;1
24012;PMS7003;12220;50.194;18.948;2022-09-09T13:01:26;1;1;1
24012;PMS7003;12220;50.194;18.948;2022-09-09T13:03:29;2;2;2
24012;PMS7003;12220;50.194;18.948;2022-09-09T13:05:34;2;2;2
24012;PMS7003;12220;50.194;18.948;2022-09-09T13:07:40;1;1;1
24012;PMS7003;12220;50.194;18.948;2022-09-09T13:09:41;0;0;0
24012;PMS7003;12220;50.194;18.948;2022-09-09T13:11:46;1;1;1
24012;PMS7003;12220;50.194;18.948;2022-09-09T13:13:54;2;2;2
24012;PMS7003;12220;50.194;18.948;2022-09-09T13:16:18;0;0;0
24012;PMS7003;12220;50.194;18.948;2022-09-09T13:18:29;0;0;0
24012;PMS7003;12220;50.194;18.948;2022-09-09T13:20:36;1;1;1
24012;PMS7003;12220;50.194;18.948;2022-09-09T13:22:49;1;1;1
24012;PMS7003;12220;50.194;18.948;2022-09-09T13:25:05;2;2;2
24012;PMS7003;12220;50.194;18.948;2022-09-09T13:29:28;1;1;1
24012;PMS7003;12220;50.194;18.948;2022-09-09T13:31:35;1;1;1
24012;PMS7003;12220;50.194;18.948;2022-09-09T13:33:38;1;1;1
24012;PMS7003;12220;50.194;18.948;2022-09-09T13:37:55;0;0;0
24012;PMS7003;12220;50.194;18.948;2022-09-09T13:40:04;1;1;0
24012;PMS7003;12220;50.194;18.948;2022-09-09T13:51:37;1;1;1
24012;PMS7003;12220;50.194;18.948;2022-09-09T13:53:35;1;1;1
24012;PMS7003;12220;50.194;18.948;2022-09-09T13:55:49;2;2;2
24012;PMS7003;12220;50.194;18.948;2022-09-09T13:57:55;1;1;1
24012;PMS7003;12220;50.194;18.948;2022-09-09T14:00:01;2;2;2
24012;PMS7003;12220;50.194;18.948;2022-09-09T14:02:02;1;1;1
24012;PMS7003;12220;50.194;18.948;2022-09-09T14:04:05;1;1;1
24012;PMS7003;12220;50.194;18.948;2022-09-09T14:06:07;1;1;1
24012;PMS7003;12220;50.194;18.948;2022-09-09T14:08:15;0;0;0
24012;PMS7003;12220;50.194;18.948;2022-09-09T14:12:55;2;2;2
24012;PMS7003;12220;50.194;18.948;2022-09-09T14:14:57;2;2;2
24012;PMS7003;12220;50.194;18.948;2022-09-09T14:17:04;0;0;0
24012;PMS7003;12220;50.194;18.948;2022-09-09T14:19:05;0;0;0
24012;PMS7003;12220;50.194;18.948;2022-09-09T14:21:08;2;2;1
24012;PMS7003;12220;50.194;18.948;2022-09-09T14:23:10;0;0;0
24012;PMS7003;12220;50.194;18.948;2022-09-09T14:25:21;0;0;0
24012;PMS7003;12220;50.194;18.948;2022-09-09T14:27:25;1;1;1
24012;PMS7003;12220;50.194;18.948;2022-09-09T14:29:30;1;1;1
24012;PMS7003;12220;50.194;18.948;2022-09-09T14:31:41;2;2;1
24012;PMS7003;12220;50.194;18.948;2022-09-09T14:36:24;1;1;1
24012;PMS7003;12220;50.194;18.948;2022-09-09T14:38:29;0;0;0
24012;PMS7003;12220;50.194;18.948;2022-09-09T14:40:39;1;1;1
24012;PMS7003;12220;50.194;18.948;2022-09-09T14:42:40;1;1;1
24012;PMS7003;12220;50.194;18.948;2022-09-09T14:44:44;1;1;1
24012;PMS7003;12220;50.194;18.948;2022-09-09T14:46:45;2;2;2
24012;PMS7003;12220;50.194;18.948;2022-09-09T14:48:47;0;0;0
24012;PMS7003;12220;50.194;18.948;2022-09-09T14:50:52;0;0;0
24012;PMS7003;12220;50.194;18.948;2022-09-09T14:52:59;2;2;2
24012;PMS7003;12220;50.194;18.948;2022-09-09T14:55:00;1;1;1
24012;PMS7003;12220;50.194;18.948;2022-09-09T14:57:02;2;2;2
24012;PMS7003;12220;50.194;18.948;2022-09-09T14:59:04;2;2;1
24012;PMS7003;12220;50.194;18.948;2022-09-09T15:01:14;1;1;1
24012;PMS7003;12220;50.194;18.948;2022-09-09T15:15:22;1;1;1
24012;PMS7003;12220;50.194;18.948;2022-09-09T15:17:23;1;1;1
24012;PMS7003;12220;50.194;18.948;2022-09-09T15:19:36;5;2;2
24012;PMS7003;12220;50.194;18.948;2022-09-09T15:21:38;1;1;1
24012;PMS7003;12220;50.194;18.948;2022-09-09T15:23:40;1;1;1
24012;PMS7003;12220;50.194;18.948;2022-09-09T15:27:55;1;1;1
24012;PMS7003;12220;50.194;18.948;2022-09-09T15:30:00;1;1;1
24012;PMS7003;12220;50.194;18.948;2022-09-09T15:34:32;2;2;2
24012;PMS7003;12220;50.194;18.948;2022-09-09T15:36:37;1;0;0
24012;PMS7003;12220;50.194;18.948;2022-09-09T15:38:40;1;1;1
24012;PMS7003;12220;50.194;18.948;2022-09-09T15:40:45;0;0;0
24012;PMS7003;12220;50.194;18.948;2022-09-09T15:43:07;1;1;1
24012;PMS7003;12220;50.194;18.948;2022-09-09T15:45:11;3;3;3
24012;PMS7003;12220;50.194;18.948;2022-09-09T15:47:13;1;1;1
24012;PMS7003;12220;50.194;18.948;2022-09-09T15:49:24;3;1;1
24012;PMS7003;12220;50.194;18.948;2022-09-09T15:51:25;0;0;0
24012;PMS7003;12220;50.194;18.948;2022-09-09T15:53:28;1;1;1
24012;PMS7003;12220;50.194;18.948;2022-09-09T15:55:32;2;2;1
24012;PMS7003;12220;50.194;18.948;2022-09-09T15:57:39;1;1;1
24012;PMS7003;12220;50.194;18.948;2022-09-09T15:59:41;2;2;1
24012;PMS7003;12220;50.194;18.948;2022-09-09T16:01:45;1;1;1
24012;PMS7003;12220;50.194;18.948;2022-09-09T16:03:47;1;1;1
24012;PMS7003;12220;50.194;18.948;2022-09-09T16:05:51;1;1;1
24012;PMS7003;12220;50.194;18.948;2022-09-09T16:07:52;1;1;1
24012;PMS7003;12220;50.194;18.948;2022-09-09T16:09:54;1;1;1
24012;PMS7003;12220;50.194;18.948;2022-09-09T16:11:56;1;1;1
24012;PMS7003;12220;50.194;18.948;2022-09-09T16:14:01;1;1;1
24012;PMS7003;12220;50.194;18.948;2022-09-09T16:16:10;1;1;0
24012;PMS7003;12220;50.194;18.948;2022-09-09T16:18:15;1;1;1
24012;PMS7003;12220;50.194;18.948;2022-09-09T16:20:16;1;1;1
24012;PMS7003;12220;50.194;18.948;2022-09-09T16:22:19;1;1;1
24012;PMS7003;12220;50.194;18.948;2022-09-09T16:24:21;1;1;1
24012;PMS7003;12220;50.194;18.948;2022-09-09T16:26:28;0;0;0
24012;PMS7003;12220;50.194;18.948;2022-09-09T16:28:31;1;1;0
24012;PMS7003;12220;50.194;18.948;2022-09-09T16:30:36;1;1;1
24012;PMS7003;12220;50.194;18.948;2022-09-09T16:32:39;1;1;1
24012;PMS7003;12220;50.194;18.948;2022-09-09T16:34:43;0;0;0
24012;PMS7003;12220;50.194;18.948;2022-09-09T16:36:46;0;0;0
24012;PMS7003;12220;50.194;18.948;2022-09-09T16:38:52;1;1;1
24012;PMS7003;12220;50.194;18.948;2022-09-09T16:41:00;2;2;2
24012;PMS7003;12220;50.194;18.948;2022-09-09T16:43:12;2;2;2
24012;PMS7003;12220;50.194;18.948;2022-09-09T16:45:14;0;0;0
24012;PMS7003;12220;50.194;18.948;2022-09-09T16:47:15;0;0;0
24012;PMS7003;12220;50.194;18.948;2022-09-09T16:49:39;1;1;1
24012;PMS7003;12220;50.194;18.948;2022-09-09T16:56:43;2;2;2
24012;PMS7003;12220;50.194;18.948;2022-09-09T16:58:50;1;1;1
24012;PMS7003;12220;50.194;18.948;2022-09-09T17:00:58;2;2;1
24012;PMS7003;12220;50.194;18.948;2022-09-09T17:03:14;0;0;0
24012;PMS7003;12220;50.194;18.948;2022-09-09T17:05:18;2;2;1
24012;PMS7003;12220;50.194;18.948;2022-09-09T17:07:19;1;1;1
24012;PMS7003;12220;50.194;18.948;2022-09-09T17:09:23;1;1;1
24012;PMS7003;12220;50.194;18.948;2022-09-09T17:11:35;2;2;1
24012;PMS7003;12220;50.194;18.948;2022-09-09T17:16:25;1;1;1
24012;PMS7003;12220;50.194;18.948;2022-09-09T17:18:35;3;1;1
24012;PMS7003;12220;50.194;18.948;2022-09-09T17:20:37;1;1;1
24012;PMS7003;12220;50.194;18.948;2022-09-09T17:22:40;0;0;0